Afton, Minnesota
Current Conditions -  °F | °C
As of 1:51 PM on Sunday 23 Nov 2014 (Local Time) from K21D Reporting Station
Drizzle Drizzle  
Wind Chill: 45°   Ceiling: 200
Heat Index: 45°   Visibility: 2.5mi
Dew Point: 45°   Wind: 3mph
Humidity: 100%   Direction: 360°N
Pressure: 29.39"   Gusts: NA
Location:  44.9°N, 92.78°W
Report Text: K21D 231951Z AUTO 36003KT 2 1/2SM -DZ BKN002 OVC007 07/07 A2939 RMK AO2
Loading
Personal Weather Stations






























Interactive Weather Map New forecast layout! Learn more

10-Day Weather Forecast

Advertisements
Track Severe Weather on mobile